Time;durP1;ratioP1;P1;durP2;ratioP2;P2;SDS_P1;SDS_P2;PMS_P1;PMS_P2;Temp;Humidity;BMP_temperature;BMP_pressure;BME280_temperature;BME280_humidity;BME280_pressure;Samples;Min_cycle;Max_cycle;Signal;HPM_P1;HPM_P2
2021/01/16 00:00:23;;;;;;;44.00;23.90;;;4.50;99.90;;;;;;4939140;29;20198;-85
2021/01/16 00:02:49;;;;;;;44.17;24.73;;;4.50;99.90;;;;;;4924452;28;20294;-84
2021/01/16 00:05:18;;;;;;;45.13;24.53;;;4.60;99.90;;;;;;4959309;28;20313;-85
2021/01/16 00:07:45;;;;;;;42.13;23.87;;;4.60;99.90;;;;;;4942875;28;20298;-85
2021/01/16 00:10:15;;;;;;;45.67;25.00;;;4.60;99.90;;;;;;4941225;29;20191;-84
2021/01/16 00:12:47;;;;;;;43.47;23.33;;;4.50;99.90;;;;;;4956739;28;20183;-85
2021/01/16 00:15:14;;;;;;;44.23;24.80;;;4.50;99.90;;;;;;4958234;28;20304;-85
2021/01/16 00:17:39;;;;;;;41.30;23.43;;;4.50;99.90;;;;;;4945894;29;20264;-84
2021/01/16 00:20:05;;;;;;;43.33;24.17;;;4.60;99.90;;;;;;4955347;28;20222;-85
2021/01/16 00:22:31;;;;;;;43.80;24.80;;;4.70;99.90;;;;;;4951078;28;20186;-84
2021/01/16 00:24:58;;;;;;;45.60;24.43;;;4.80;99.90;;;;;;4957162;28;20181;-84
2021/01/16 00:27:26;;;;;;;44.97;24.70;;;4.60;99.90;;;;;;4941079;28;20689;-84
2021/01/16 00:29:53;;;;;;;41.50;23.83;;;4.40;99.90;;;;;;4941268;29;20717;-84
2021/01/16 00:32:18;;;;;;;41.93;23.87;;;4.40;99.90;;;;;;4939139;28;20187;-85
2021/01/16 00:34:44;;;;;;;40.43;23.27;;;4.50;99.90;;;;;;4942483;28;20533;-84
2021/01/16 00:37:10;;;;;;;42.80;25.27;;;4.40;99.90;;;;;;4956966;28;20185;-85
2021/01/16 00:39:36;;;;;;;47.53;24.93;;;4.40;99.90;;;;;;4956666;28;20196;-85
2021/01/16 00:42:01;;;;;;;44.33;25.43;;;4.50;99.90;;;;;;4933691;29;20198;-85
2021/01/16 00:44:27;;;;;;;45.67;25.63;;;4.50;99.90;;;;;;4939034;28;20249;-84
2021/01/16 00:46:53;;;;;;;46.07;24.27;;;4.40;99.90;;;;;;4944091;28;20185;-84
2021/01/16 00:49:19;;;;;;;46.63;24.43;;;4.40;99.90;;;;;;4955430;28;20251;-84
2021/01/16 00:51:46;;;;;;;46.27;24.93;;;4.40;99.90;;;;;;4954284;28;20640;-84
2021/01/16 00:54:12;;;;;;;43.47;24.57;;;4.50;99.90;;;;;;4944627;28;20188;-84
2021/01/16 00:56:39;;;;;;;47.73;24.17;;;4.50;99.90;;;;;;4954622;28;20176;-85
2021/01/16 00:59:11;;;;;;;47.80;23.67;;;4.50;99.90;;;;;;4959478;28;20186;-84
2021/01/16 01:01:51;;;;;;;42.03;24.40;;;4.50;99.90;;;;;;4958358;28;20571;-84
2021/01/16 01:04:17;;;;;;;43.03;23.50;;;4.40;99.90;;;;;;4923423;28;20721;-83
2021/01/16 01:06:43;;;;;;;41.40;23.50;;;4.30;99.90;;;;;;4943534;28;20314;-84
2021/01/16 01:09:09;;;;;;;46.87;24.10;;;4.30;99.90;;;;;;4922805;28;20184;-83
2021/01/16 01:11:34;;;;;;;44.73;24.13;;;4.30;99.90;;;;;;4955936;28;20285;-83
2021/01/16 01:14:00;;;;;;;43.03;24.33;;;4.40;99.90;;;;;;4962976;28;20188;-83
2021/01/16 01:16:26;;;;;;;48.93;25.10;;;4.30;99.90;;;;;;4942062;28;20201;-83
2021/01/16 01:18:51;;;;;;;41.67;22.93;;;4.10;99.90;;;;;;4962873;28;20215;-84
2021/01/16 01:21:21;;;;;;;46.27;24.47;;;4.00;99.90;;;;;;4941215;28;20663;-83
2021/01/16 01:23:47;;;;;;;44.23;23.47;;;4.00;99.90;;;;;;4961920;28;20285;-83
2021/01/16 01:26:12;;;;;;;42.87;23.67;;;4.10;99.90;;;;;;4961303;28;20184;-83
2021/01/16 01:28:38;;;;;;;43.70;23.63;;;4.10;99.90;;;;;;4946612;28;20210;-84
2021/01/16 01:31:04;;;;;;;47.63;24.80;;;4.20;99.90;;;;;;4961356;28;20182;-84
2021/01/16 01:33:30;;;;;;;43.30;23.77;;;4.20;99.90;;;;;;4957867;28;20171;-84
2021/01/16 01:35:55;;;;;;;44.00;24.47;;;4.30;99.90;;;;;;4930042;28;20177;-85
2021/01/16 01:38:21;;;;;;;40.10;22.93;;;4.40;99.90;;;;;;4962010;28;20668;-85
2021/01/16 01:40:47;;;;;;;43.13;23.37;;;4.40;99.90;;;;;;4927568;28;20189;-85
2021/01/16 01:43:13;;;;;;;40.13;22.93;;;4.40;99.90;;;;;;4959903;28;20194;-85
2021/01/16 01:45:39;;;;;;;43.13;22.93;;;4.40;99.90;;;;;;4945531;29;20184;-84
2021/01/16 01:48:05;;;;;;;41.60;23.70;;;4.40;99.90;;;;;;4946962;28;20768;-85
2021/01/16 01:50:31;;;;;;;44.07;23.93;;;4.30;99.90;;;;;;4932702;28;20182;-85
2021/01/16 01:53:00;;;;;;;48.87;24.10;;;4.30;99.90;;;;;;4961372;28;20291;-84
2021/01/16 01:55:27;;;;;;;40.33;22.70;;;4.30;99.90;;;;;;4961355;28;20221;-85
2021/01/16 01:57:54;;;;;;;42.67;23.87;;;4.30;99.90;;;;;;4957332;28;20184;-85
2021/01/16 02:00:21;;;;;;;44.33;23.93;;;4.40;99.90;;;;;;4960844;28;20265;-85
2021/01/16 02:02:48;;;;;;;41.83;23.37;;;4.30;99.90;;;;;;4944630;28;20758;-85
2021/01/16 02:05:15;;;;;;;40.67;22.53;;;4.40;99.90;;;;;;4929003;28;21076;-84
2021/01/16 02:07:41;;;;;;;40.73;22.77;;;4.20;99.90;;;;;;4944925;28;20203;-85
2021/01/16 02:10:07;;;;;;;42.17;22.53;;;4.10;99.90;;;;;;4957307;28;20179;-84
2021/01/16 02:12:33;;;;;;;44.63;23.73;;;4.00;99.90;;;;;;4947653;28;20211;-84
2021/01/16 02:15:14;;;;;;;42.37;23.67;;;4.20;99.90;;;;;;4961452;28;20254;-85
2021/01/16 02:17:43;;;;;;;39.87;22.80;;;4.20;99.90;;;;;;4948474;28;20278;-85
2021/01/16 02:20:14;;;;;;;43.90;23.87;;;4.30;99.90;;;;;;4965463;28;20216;-85
2021/01/16 02:22:51;;;;;;;44.80;23.87;;;4.30;99.90;;;;;;4945136;28;20194;-85
2021/01/16 02:25:22;;;;;;;41.03;22.63;;;4.40;99.90;;;;;;4944944;28;20186;-84
2021/01/16 02:27:58;;;;;;;43.77;23.33;;;4.50;99.90;;;;;;4956821;28;20672;-85
2021/01/16 02:30:26;;;;;;;42.23;23.00;;;4.50;99.90;;;;;;4927335;28;20178;-85
2021/01/16 02:32:52;;;;;;;42.10;22.50;;;4.40;99.90;;;;;;4945793;28;20179;-85
2021/01/16 02:35:19;;;;;;;41.83;22.47;;;4.20;99.90;;;;;;4939890;28;20191;-84
2021/01/16 02:38:19;;;;;;;44.40;22.67;;;3.90;99.90;;;;;;4926708;28;20591;-85
2021/01/16 02:40:59;;;;;;;40.53;22.33;;;3.80;99.90;;;;;;4959620;28;20655;-85
2021/01/16 02:43:34;;;;;;;39.73;22.07;;;3.80;99.90;;;;;;4941106;28;20471;-85
2021/01/16 02:46:19;;;;;;;46.17;22.67;;;3.80;99.90;;;;;;4928412;29;20204;-85
2021/01/16 02:49:04;;;;;;;43.77;22.87;;;3.80;99.90;;;;;;4940840;28;20215;-85
2021/01/16 02:52:09;;;;;;;38.47;22.23;;;3.90;99.90;;;;;;4959824;28;20221;-85
2021/01/16 02:54:37;;;;;;;39.80;21.87;;;3.90;99.90;;;;;;4954985;28;20198;-85
2021/01/16 02:57:05;;;;;;;40.43;21.97;;;3.80;99.90;;;;;;4941628;28;20231;-85
2021/01/16 02:59:34;;;;;;;37.63;20.90;;;3.70;99.90;;;;;;4956067;28;20538;-85
2021/01/16 03:02:00;;;;;;;41.10;21.97;;;3.70;99.90;;;;;;4958480;28;20204;-84
2021/01/16 03:04:26;;;;;;;39.17;22.07;;;3.70;99.90;;;;;;4961616;28;20269;-86
2021/01/16 03:06:54;;;;;;;41.47;22.13;;;3.70;99.90;;;;;;4926357;29;20205;-85
2021/01/16 03:09:20;;;;;;;39.47;21.70;;;3.70;99.90;;;;;;4926888;29;20179;-84
2021/01/16 03:11:46;;;;;;;41.53;22.07;;;3.70;99.90;;;;;;4919778;29;20173;-84
2021/01/16 03:14:13;;;;;;;39.80;22.10;;;3.80;99.90;;;;;;4924325;29;20252;-85
2021/01/16 03:16:52;;;;;;;38.13;21.17;;;4.00;99.90;;;;;;4924373;28;20184;-85
2021/01/16 03:19:23;;;;;;;37.93;21.13;;;4.10;99.90;;;;;;4921306;29;20219;-85
2021/01/16 03:21:49;;;;;;;43.40;22.97;;;4.20;99.90;;;;;;4923984;29;20180;-84
2021/01/16 03:24:15;;;;;;;41.83;22.83;;;4.30;99.90;;;;;;4925941;29;20643;-83
2021/01/16 03:26:40;;;;;;;43.97;23.53;;;4.30;99.90;;;;;;4940498;29;20214;-84
2021/01/16 03:29:06;;;;;;;40.97;22.70;;;4.30;99.90;;;;;;4926055;29;20203;-85
2021/01/16 03:31:32;;;;;;;39.83;22.53;;;4.20;99.90;;;;;;4922754;29;20180;-84
2021/01/16 03:33:58;;;;;;;39.90;22.00;;;4.20;99.90;;;;;;4943647;29;20210;-84
2021/01/16 03:36:23;;;;;;;39.43;21.27;;;4.20;99.90;;;;;;4935652;29;20191;-84
2021/01/16 03:38:49;;;;;;;41.17;22.10;;;4.20;99.90;;;;;;4936450;29;20208;-84
2021/01/16 03:41:15;;;;;;;40.37;22.37;;;4.30;99.90;;;;;;4928343;29;20264;-84
2021/01/16 03:43:41;;;;;;;37.53;21.50;;;4.40;99.90;;;;;;4923086;29;20219;-84
2021/01/16 03:46:07;;;;;;;43.63;22.93;;;4.30;99.90;;;;;;4923827;29;20195;-84
2021/01/16 03:48:35;;;;;;;39.33;22.07;;;4.20;99.90;;;;;;4909622;29;20204;-85
2021/01/16 03:51:00;;;;;;;40.83;21.60;;;4.20;99.90;;;;;;4940356;28;20674;-84
2021/01/16 03:53:26;;;;;;;37.77;21.67;;;4.30;99.90;;;;;;4925086;29;20267;-85
2021/01/16 03:55:52;;;;;;;41.03;22.00;;;4.40;99.90;;;;;;4920669;29;20191;-85
2021/01/16 03:58:17;;;;;;;40.70;21.90;;;4.40;99.90;;;;;;4926488;29;20181;-84
2021/01/16 04:00:43;;;;;;;37.00;21.87;;;4.30;99.90;;;;;;4920814;29;20646;-85
2021/01/16 04:03:09;;;;;;;41.30;22.80;;;4.20;99.90;;;;;;4921294;29;20207;-84
2021/01/16 04:05:34;;;;;;;39.67;22.53;;;4.10;99.90;;;;;;4926125;29;20691;-83
2021/01/16 04:08:00;;;;;;;41.20;21.30;;;3.90;99.90;;;;;;4935285;29;20573;-85
2021/01/16 04:10:26;;;;;;;41.77;22.43;;;3.90;99.90;;;;;;4940921;29;20568;-85
2021/01/16 04:12:51;;;;;;;40.97;22.00;;;4.00;99.90;;;;;;4925993;29;20659;-84
2021/01/16 04:15:17;;;;;;;40.70;21.97;;;4.10;99.90;;;;;;4941756;29;20658;-85
2021/01/16 04:17:43;;;;;;;40.97;22.43;;;4.30;99.90;;;;;;4926192;29;20194;-85
2021/01/16 04:20:09;;;;;;;38.50;21.37;;;4.30;99.90;;;;;;4934934;29;20267;-85
2021/01/16 04:22:38;;;;;;;40.17;22.27;;;4.30;99.90;;;;;;4939021;29;20173;-85
2021/01/16 04:25:05;;;;;;;38.07;21.53;;;4.40;99.90;;;;;;4941424;29;20570;-84
2021/01/16 04:27:33;;;;;;;36.27;21.37;;;4.30;99.90;;;;;;4936198;29;20290;-85
2021/01/16 04:29:59;;;;;;;39.97;21.63;;;4.20;99.90;;;;;;4937342;29;20952;-84
2021/01/16 04:32:25;;;;;;;41.90;21.27;;;4.00;99.90;;;;;;4935426;29;20254;-84
2021/01/16 04:34:51;;;;;;;38.53;22.37;;;3.90;99.90;;;;;;4938772;29;20177;-84
2021/01/16 04:37:17;;;;;;;39.97;22.90;;;3.80;99.90;;;;;;4937332;29;20607;-84
2021/01/16 04:39:42;;;;;;;39.20;21.13;;;3.80;99.90;;;;;;4938333;29;20207;-85
2021/01/16 04:42:13;;;;;;;41.60;22.87;;;3.80;99.90;;;;;;4937378;29;20202;-84
2021/01/16 04:44:44;;;;;;;43.47;23.10;;;3.90;99.90;;;;;;4937308;29;20287;-85
2021/01/16 04:47:16;;;;;;;39.83;21.77;;;3.80;99.90;;;;;;4935662;29;20923;-85
2021/01/16 04:49:42;;;;;;;40.60;21.67;;;3.80;99.90;;;;;;4939423;29;20180;-84
2021/01/16 04:52:10;;;;;;;40.70;22.20;;;3.70;99.90;;;;;;4922057;29;20753;-84
2021/01/16 04:54:37;;;;;;;40.87;22.73;;;3.70;99.90;;;;;;4942066;29;20212;-84
2021/01/16 04:57:04;;;;;;;43.80;22.53;;;3.70;99.90;;;;;;4937461;29;20245;-83
2021/01/16 04:59:30;;;;;;;39.13;21.57;;;3.60;99.90;;;;;;4939826;29;20195;-83
2021/01/16 05:01:57;;;;;;;41.50;20.90;;;3.70;99.90;;;;;;4940248;29;20222;-84
2021/01/16 05:04:26;;;;;;;42.20;21.97;;;3.70;99.90;;;;;;4934738;29;20548;-83
2021/01/16 05:06:52;;;;;;;43.03;22.47;;;3.70;99.90;;;;;;4958761;28;20202;-84
2021/01/16 05:09:20;;;;;;;41.50;21.73;;;3.60;99.90;;;;;;4955541;28;20187;-84
2021/01/16 05:12:17;;;;;;;41.33;21.93;;;3.60;99.90;;;;;;4939048;29;20177;-83
2021/01/16 05:15:03;;;;;;;38.27;20.73;;;3.70;99.90;;;;;;4939044;28;20188;-84
2021/01/16 05:17:35;;;;;;;39.53;21.00;;;3.50;99.90;;;;;;4950363;28;20201;-84
2021/01/16 05:20:02;;;;;;;39.43;21.37;;;3.50;99.90;;;;;;4941760;28;20187;-83
2021/01/16 05:22:27;;;;;;;42.23;23.00;;;3.60;99.90;;;;;;4953817;28;20181;-84
2021/01/16 05:25:00;;;;;;;38.33;20.90;;;3.80;99.90;;;;;;4940963;28;20183;-85
2021/01/16 05:27:34;;;;;;;40.60;22.10;;;3.80;99.90;;;;;;4939951;28;20576;-84
2021/01/16 05:30:03;;;;;;;41.30;21.83;;;3.80;99.90;;;;;;4937350;29;20638;-84
2021/01/16 05:32:30;;;;;;;43.27;21.97;;;3.80;99.90;;;;;;4940397;29;20940;-85
2021/01/16 05:35:12;;;;;;;42.53;22.80;;;3.90;99.90;;;;;;4936616;29;20192;-85
2021/01/16 05:37:37;;;;;;;40.10;22.00;;;3.90;99.90;;;;;;4956475;28;20853;-85
2021/01/16 05:40:03;;;;;;;44.33;23.20;;;4.00;99.90;;;;;;4954432;28;20179;-85
2021/01/16 05:42:29;;;;;;;42.70;22.37;;;4.00;99.90;;;;;;4937958;28;20193;-86
2021/01/16 05:44:55;;;;;;;41.73;22.57;;;4.00;99.90;;;;;;4943249;29;20176;-86
2021/01/16 05:47:21;;;;;;;44.77;22.03;;;3.90;99.90;;;;;;4953896;28;20730;-86
2021/01/16 05:49:47;;;;;;;43.30;21.93;;;3.90;99.90;;;;;;4957403;28;20227;-86
2021/01/16 05:52:13;;;;;;;45.00;23.17;;;4.00;99.90;;;;;;4920884;28;20961;-86
2021/01/16 05:54:40;;;;;;;37.90;20.87;;;4.10;99.90;;;;;;4939151;28;20229;-86
2021/01/16 05:57:15;;;;;;;43.13;21.27;;;4.10;99.90;;;;;;4929824;28;20215;-86
2021/01/16 05:59:45;;;;;;;39.77;20.90;;;4.00;99.90;;;;;;4960101;28;20188;-85
2021/01/16 06:02:12;;;;;;;38.70;21.00;;;4.00;99.90;;;;;;4959819;28;20196;-86
2021/01/16 06:04:46;;;;;;;43.13;21.03;;;4.00;99.90;;;;;;4954895;28;20184;-86
2021/01/16 06:07:12;;;;;;;34.20;18.47;;;4.00;99.90;;;;;;4928098;29;20220;-86
2021/01/16 06:09:38;;;;;;;36.57;19.30;;;4.00;99.90;;;;;;4923036;29;20177;-85
2021/01/16 06:12:12;;;;;;;35.63;19.03;;;3.90;99.90;;;;;;4938676;29;20184;-85
2021/01/16 06:14:45;;;;;;;33.57;18.03;;;3.80;99.90;;;;;;4909127;29;20195;-82
2021/01/16 06:17:18;;;;;;;30.73;17.50;;;3.90;99.90;;;;;;4938702;29;20206;-85
2021/01/16 06:19:49;;;;;;;32.63;16.17;;;3.90;99.90;;;;;;4924925;29;20274;-84
2021/01/16 06:22:17;;;;;;;30.43;14.93;;;3.90;99.90;;;;;;4940750;29;20180;-84
2021/01/16 06:24:48;;;;;;;30.13;15.13;;;3.90;99.90;;;;;;4929326;29;20195;-86
2021/01/16 06:27:23;;;;;;;28.30;14.63;;;3.90;99.90;;;;;;4948330;29;20207;-87
2021/01/16 06:30:08;;;;;;;30.23;14.27;;;4.00;99.90;;;;;;4928908;29;20196;-87
2021/01/16 06:32:46;;;;;;;25.77;13.87;;;4.00;99.90;;;;;;4923514;28;20209;-89
2021/01/16 06:35:13;;;;;;;22.83;12.43;;;4.00;99.90;;;;;;4938095;29;20190;-87
2021/01/16 06:37:45;;;;;;;27.30;13.77;;;3.80;99.90;;;;;;4938186;29;20188;-87
2021/01/16 06:40:13;;;;;;;26.70;13.77;;;3.80;99.90;;;;;;4944040;29;20270;-89
2021/01/16 06:42:40;;;;;;;23.13;12.33;;;3.90;99.90;;;;;;4926203;29;20180;-87
2021/01/16 06:45:10;;;;;;;25.90;12.73;;;3.80;99.90;;;;;;4928004;29;20188;-87
2021/01/16 06:47:38;;;;;;;23.97;11.70;;;3.70;99.90;;;;;;4922917;29;20208;-87
2021/01/16 06:50:07;;;;;;;22.57;11.63;;;3.70;99.90;;;;;;4939804;29;20188;-88
2021/01/16 06:52:35;;;;;;;21.47;10.53;;;3.70;99.90;;;;;;4941487;29;20181;-88
2021/01/16 06:55:03;;;;;;;22.33;10.87;;;3.80;99.90;;;;;;4923352;29;20204;-88
2021/01/16 06:57:31;;;;;;;23.97;10.87;;;3.90;99.90;;;;;;4925140;29;20678;-87
2021/01/16 07:00:07;;;;;;;26.10;11.60;;;3.80;99.90;;;;;;4924714;29;20305;-85
2021/01/16 07:02:37;;;;;;;20.87;10.97;;;3.80;99.90;;;;;;4924003;29;20769;-87
2021/01/16 07:05:21;;;;;;;21.83;10.67;;;3.70;99.90;;;;;;4946088;28;20709;-88
2021/01/16 07:07:51;;;;;;;19.83;10.60;;;3.70;99.90;;;;;;4945354;29;20704;-89
2021/01/16 07:10:20;;;;;;;21.10;10.83;;;3.60;99.90;;;;;;4946936;28;20249;-88
2021/01/16 07:12:48;;;;;;;25.43;11.60;;;3.70;99.90;;;;;;4948590;28;20168;-87
2021/01/16 07:15:15;;;;;;;19.80;10.80;;;3.80;99.90;;;;;;4929262;28;20200;-88
2021/01/16 07:17:42;;;;;;;22.40;10.90;;;3.70;99.90;;;;;;4925696;28;20242;-87
2021/01/16 07:20:08;;;;;;;25.20;11.37;;;3.80;99.90;;;;;;4929424;28;20638;-85
2021/01/16 07:22:41;;;;;;;20.20;10.50;;;3.90;99.90;;;;;;4956250;28;20550;-83
2021/01/16 07:25:09;;;;;;;22.70;10.73;;;3.80;99.90;;;;;;4959679;28;20189;-85
2021/01/16 07:27:36;;;;;;;25.50;10.87;;;3.80;99.90;;;;;;4956323;28;20288;-86
2021/01/16 07:30:05;;;;;;;23.70;10.80;;;3.90;99.90;;;;;;4957825;28;20180;-83
2021/01/16 07:32:46;;;;;;;20.87;11.40;;;3.90;99.90;;;;;;4957045;28;20206;-83
2021/01/16 07:35:14;;;;;;;24.93;11.57;;;4.10;99.90;;;;;;4927711;28;20207;-84
2021/01/16 07:37:41;;;;;;;23.90;11.53;;;4.10;99.90;;;;;;4927415;28;20544;-84
2021/01/16 07:40:17;;;;;;;24.83;11.83;;;4.10;99.90;;;;;;4944535;28;20175;-86
2021/01/16 07:42:55;;;;;;;28.20;13.03;;;4.00;99.90;;;;;;4952795;28;20198;-81
2021/01/16 07:45:38;;;;;;;24.07;12.30;;;4.00;99.90;;;;;;4943923;28;20197;-84
2021/01/16 07:48:05;;;;;;;24.00;12.73;;;4.00;99.90;;;;;;4942568;29;20213;-82
2021/01/16 07:50:33;;;;;;;24.00;12.60;;;4.10;99.90;;;;;;4939496;28;20212;-83
2021/01/16 07:53:09;;;;;;;25.37;12.20;;;4.10;99.90;;;;;;4958370;28;20188;-86
2021/01/16 07:55:35;;;;;;;24.27;12.13;;;4.10;99.90;;;;;;4941270;28;20187;-89
2021/01/16 07:58:27;;;;;;;22.47;11.93;;;3.90;99.90;;;;;;4955293;28;20204;-87
2021/01/16 08:01:04;;;;;;;25.53;12.33;;;3.80;99.90;;;;;;4927188;28;20208;-87
2021/01/16 08:03:45;;;;;;;21.03;10.73;;;3.80;99.90;;;;;;4960815;28;20202;-88
2021/01/16 08:06:44;;;;;;;22.87;10.77;;;3.70;99.90;;;;;;4940835;28;20243;-85
2021/01/16 08:09:22;;;;;;;19.83;10.00;;;3.70;99.90;;;;;;4943053;29;20298;-87
2021/01/16 08:11:51;;;;;;;19.87;9.60;;;3.70;99.90;;;;;;4920984;29;20187;-87
2021/01/16 08:14:21;;;;;;;19.87;10.30;;;3.70;99.90;;;;;;4940933;28;20980;-87
2021/01/16 08:16:57;;;;;;;19.37;9.83;;;3.60;99.90;;;;;;4960145;28;20207;-87
2021/01/16 08:19:31;;;;;;;18.43;9.67;;;3.50;99.90;;;;;;4949439;28;20182;-88
2021/01/16 08:21:58;;;;;;;21.33;10.10;;;3.50;99.90;;;;;;4937445;29;20221;-88
2021/01/16 08:24:30;;;;;;;20.53;10.13;;;3.50;99.90;;;;;;4957208;28;20199;-88
2021/01/16 08:27:00;;;;;;;22.33;10.00;;;3.50;99.90;;;;;;4942081;28;20187;-87
2021/01/16 08:29:27;;;;;;;19.50;10.20;;;3.60;99.90;;;;;;4959800;28;20819;-88
2021/01/16 08:32:23;;;;;;;18.03;9.27;;;3.70;99.90;;;;;;4938259;29;20187;-87
2021/01/16 08:34:50;;;;;;;16.83;9.03;;;3.60;99.90;;;;;;4939786;28;20210;-86
2021/01/16 08:37:33;;;;;;;18.10;9.70;;;3.70;99.90;;;;;;4956227;28;20594;-85
2021/01/16 08:40:03;;;;;;;21.13;10.00;;;3.70;99.90;;;;;;4938895;28;20258;-86
2021/01/16 08:42:29;;;;;;;23.40;12.80;;;3.70;99.90;;;;;;4957287;28;20183;-86
2021/01/16 08:44:57;;;;;;;20.23;11.20;;;3.80;99.90;;;;;;4930128;28;20649;-86
2021/01/16 08:47:23;;;;;;;21.53;11.57;;;4.00;99.90;;;;;;4961257;28;20297;-86
2021/01/16 08:49:49;;;;;;;19.80;10.23;;;4.10;99.90;;;;;;4955014;28;20197;-86
2021/01/16 08:52:32;;;;;;;20.23;9.97;;;4.30;99.90;;;;;;4943887;28;20183;-86
2021/01/16 08:55:00;;;;;;;19.47;9.90;;;4.40;99.90;;;;;;4953475;28;20178;-87
2021/01/16 08:57:34;;;;;;;22.17;10.63;;;4.30;99.90;;;;;;4941294;28;20689;-87
2021/01/16 09:00:18;;;;;;;19.80;10.50;;;4.10;99.90;;;;;;4937776;28;20180;-87
2021/01/16 09:03:05;;;;;;;20.80;10.80;;;3.90;99.90;;;;;;4955714;28;20283;-88
2021/01/16 09:05:32;;;;;;;21.47;10.27;;;4.10;99.90;;;;;;4957863;28;20231;-87
2021/01/16 09:07:59;;;;;;;21.20;11.07;;;4.20;99.90;;;;;;4950579;28;20203;-87
2021/01/16 09:10:26;;;;;;;19.30;10.17;;;4.20;99.90;;;;;;4956736;28;20585;-86
2021/01/16 09:12:52;;;;;;;21.33;10.40;;;4.10;99.90;;;;;;4963666;28;20187;-87
2021/01/16 09:15:18;;;;;;;22.73;11.07;;;4.20;99.90;;;;;;4964747;28;20203;-87
2021/01/16 09:18:01;;;;;;;20.70;10.50;;;4.20;99.90;;;;;;4966370;28;20293;-87
2021/01/16 09:20:28;;;;;;;18.30;9.37;;;4.30;99.90;;;;;;4946797;29;20191;-87
2021/01/16 09:22:54;;;;;;;22.77;10.87;;;4.20;99.90;;;;;;4961848;28;20204;-87
2021/01/16 09:25:26;;;;;;;21.03;10.43;;;4.10;99.90;;;;;;4964424;28;20208;-89
2021/01/16 09:27:53;;;;;;;23.37;10.73;;;4.10;99.90;;;;;;4944380;28;20294;-89
2021/01/16 09:30:23;;;;;;;21.50;10.80;;;3.70;99.90;;;;;;4924968;28;20196;-88
2021/01/16 09:32:50;;;;;;;23.30;10.77;;;3.60;99.90;;;;;;4923878;29;20242;-88
2021/01/16 09:35:38;;;;;;;22.70;11.57;;;3.60;99.90;;;;;;4937397;29;20199;-89
2021/01/16 09:38:14;;;;;;;23.60;11.73;;;3.50;99.90;;;;;;4963332;28;20282;-88
2021/01/16 09:40:40;;;;;;;27.13;12.47;;;3.60;99.90;;;;;;4944914;28;20197;-86
2021/01/16 09:43:17;;;;;;;23.83;12.10;;;3.50;99.90;;;;;;4960256;28;20180;-89
2021/01/16 09:45:50;;;;;;;27.03;13.10;;;3.40;99.90;;;;;;4946370;28;20195;-89
2021/01/16 09:48:46;;;;;;;26.97;13.23;;;3.40;99.90;;;;;;4966397;28;20199;-86
2021/01/16 09:51:13;;;;;;;29.43;13.33;;;3.60;99.90;;;;;;4955133;28;20195;-90
2021/01/16 09:53:40;;;;;;;26.27;13.27;;;3.60;99.90;;;;;;4943988;28;20690;-89
2021/01/16 09:56:07;;;;;;;26.77;12.87;;;3.80;99.90;;;;;;4961039;28;20210;-89
2021/01/16 09:58:36;;;;;;;26.77;13.53;;;3.80;99.90;;;;;;4946444;28;20279;-89
2021/01/16 10:01:22;;;;;;;27.53;14.10;;;3.70;99.90;;;;;;4961112;28;20184;-89
2021/01/16 10:03:49;;;;;;;27.00;13.57;;;3.80;99.90;;;;;;4962604;28;20203;-88
2021/01/16 10:06:19;;;;;;;27.47;14.17;;;3.90;99.90;;;;;;4961987;28;20239;-88
2021/01/16 10:08:49;;;;;;;34.33;15.30;;;3.60;99.90;;;;;;4963207;28;20250;-89
2021/01/16 10:11:44;;;;;;;29.47;14.00;;;3.70;99.90;;;;;;4957457;28;20191;-89
2021/01/16 10:14:18;;;;;;;26.27;13.03;;;3.50;99.90;;;;;;4962509;28;20168;-88
2021/01/16 10:16:45;;;;;;;27.13;13.83;;;3.40;99.90;;;;;;4943722;29;20256;-88
2021/01/16 10:19:13;;;;;;;27.80;13.57;;;3.40;99.90;;;;;;4944206;29;20184;-89
2021/01/16 10:21:56;;;;;;;26.33;13.83;;;3.30;99.90;;;;;;4958431;28;20701;-89
2021/01/16 10:24:24;;;;;;;28.37;13.67;;;3.40;99.90;;;;;;4942828;28;20196;-89
2021/01/16 10:26:51;;;;;;;25.73;13.13;;;3.60;99.90;;;;;;4964703;28;20203;-88
2021/01/16 10:29:18;;;;;;;26.50;13.07;;;3.60;99.90;;;;;;4959244;28;20203;-89
2021/01/16 10:31:44;;;;;;;26.03;12.83;;;3.80;99.90;;;;;;4964900;28;20599;-89
2021/01/16 10:34:10;;;;;;;24.93;12.57;;;3.80;99.90;;;;;;4960393;28;20180;-89
2021/01/16 10:36:37;;;;;;;26.80;12.13;;;3.90;99.90;;;;;;4960504;28;20302;-87
2021/01/16 10:39:10;;;;;;;27.43;12.53;;;3.90;99.90;;;;;;4957069;28;20194;-90
2021/01/16 10:41:38;;;;;;;23.27;11.67;;;4.00;99.90;;;;;;4926488;28;20200;-91
2021/01/16 10:44:05;;;;;;;24.83;11.67;;;4.00;99.90;;;;;;4943182;28;20235;-91
2021/01/16 10:46:53;;;;;;;24.73;12.43;;;4.00;99.90;;;;;;4941957;29;20190;-90
2021/01/16 10:49:21;;;;;;;23.90;11.67;;;4.10;99.90;;;;;;4944998;28;20246;-87
2021/01/16 10:51:50;;;;;;;21.00;10.33;;;4.10;99.90;;;;;;4964123;28;20240;-90
2021/01/16 10:54:18;;;;;;;23.40;11.53;;;3.90;99.90;;;;;;4946049;28;20191;-86
2021/01/16 10:57:04;;;;;;;26.03;11.30;;;3.70;99.90;;;;;;4926165;28;20210;-90
2021/01/16 10:59:32;;;;;;;23.90;11.10;;;3.70;99.90;;;;;;4963685;28;20202;-90
2021/01/16 11:02:09;;;;;;;22.53;11.40;;;3.70;99.90;;;;;;4965084;28;20191;-90
2021/01/16 11:04:40;;;;;;;19.83;10.43;;;3.70;99.90;;;;;;4948493;28;20217;-89
2021/01/16 11:07:25;;;;;;;22.83;11.10;;;3.60;99.90;;;;;;4960228;28;20245;-88
2021/01/16 11:10:03;;;;;;;23.17;10.83;;;3.60;99.90;;;;;;4945278;28;20193;-88
2021/01/16 11:12:29;;;;;;;23.70;11.87;;;3.40;99.90;;;;;;4962172;28;20282;-88
2021/01/16 11:14:55;;;;;;;22.70;11.30;;;3.30;99.90;;;;;;4963869;28;20261;-87
2021/01/16 11:17:48;;;;;;;26.40;13.17;;;3.50;99.90;;;;;;4965424;28;20182;-90
2021/01/16 11:20:22;;;;;;;24.20;12.07;;;3.50;99.90;;;;;;4940170;28;20191;-90
2021/01/16 11:23:18;;;;;;;26.63;12.50;;;3.40;99.90;;;;;;4951010;28;20513;-90
2021/01/16 11:25:48;;;;;;;27.13;13.10;;;3.30;99.90;;;;;;4928999;28;20282;-89
2021/01/16 11:28:26;;;;;;;27.37;12.77;;;3.20;99.90;;;;;;4964783;28;20250;-90
2021/01/16 11:31:08;;;;;;;27.93;13.93;;;3.20;99.90;;;;;;4966163;28;20190;-89
2021/01/16 11:33:34;;;;;;;29.30;13.63;;;2.90;99.90;;;;;;4966726;28;20179;-89
2021/01/16 11:36:03;;;;;;;28.80;13.63;;;2.90;99.90;;;;;;4967592;28;20183;-90
2021/01/16 11:38:46;;;;;;;29.23;14.10;;;3.00;99.90;;;;;;4924622;28;20207;-89
2021/01/16 11:41:13;;;;;;;27.33;13.70;;;2.90;99.90;;;;;;4969112;28;20184;-90
2021/01/16 11:43:41;;;;;;;29.00;14.10;;;3.00;99.90;;;;;;4944323;28;20207;-90
2021/01/16 11:46:10;;;;;;;28.63;14.57;;;2.90;99.90;;;;;;4942548;28;20674;-89
2021/01/16 11:48:37;;;;;;;30.30;15.10;;;2.70;99.90;;;;;;4930311;28;20243;-89
2021/01/16 11:51:19;;;;;;;29.07;14.43;;;2.80;99.90;;;;;;4963189;28;20184;-88
2021/01/16 11:53:49;;;;;;;31.33;15.43;;;2.90;99.90;;;;;;4947732;28;20638;-90
2021/01/16 11:56:20;;;;;;;33.63;17.23;;;2.90;99.90;;;;;;4936364;28;20298;-90
2021/01/16 11:58:48;;;;;;;31.87;15.83;;;3.00;99.90;;;;;;4938658;28;20562;-91
2021/01/16 12:01:15;;;;;;;32.63;14.93;;;3.10;99.90;;;;;;4958733;28;20568;-90
2021/01/16 12:03:44;;;;;;;32.33;16.07;;;3.20;99.90;;;;;;4945523;28;20191;-90
2021/01/16 12:06:18;;;;;;;31.53;15.53;;;3.30;99.90;;;;;;4945021;29;20672;-89
2021/01/16 12:08:48;;;;;;;33.30;16.40;;;3.20;99.90;;;;;;4952341;28;20671;-89
2021/01/16 12:11:15;;;;;;;32.00;15.50;;;3.10;99.90;;;;;;4956260;28;20180;-89
2021/01/16 12:13:50;;;;;;;28.43;14.90;;;3.00;99.90;;;;;;4946256;28;20190;-89
2021/01/16 12:16:16;;;;;;;30.90;16.00;;;2.90;99.90;;;;;;4955343;28;20190;-89
2021/01/16 12:18:42;;;;;;;31.40;16.23;;;3.00;99.90;;;;;;4965357;28;20187;-88
2021/01/16 12:21:12;;;;;;;34.37;15.60;;;2.80;99.90;;;;;;4944218;28;20268;-88
2021/01/16 12:23:46;;;;;;;32.23;16.40;;;2.80;99.90;;;;;;4954945;28;20191;-86
2021/01/16 12:26:15;;;;;;;35.37;16.97;;;3.00;99.90;;;;;;4927087;28;21445;-86
2021/01/16 12:28:51;;;;;;;34.23;16.57;;;3.00;99.90;;;;;;4928803;28;20673;-87
2021/01/16 12:31:22;;;;;;;34.13;17.47;;;3.00;99.90;;;;;;4945068;28;20750;-86
2021/01/16 12:33:48;;;;;;;33.27;16.73;;;3.10;99.90;;;;;;4957515;28;20184;-84
2021/01/16 12:36:14;;;;;;;35.27;18.13;;;3.00;99.90;;;;;;4946951;28;20194;-86
2021/01/16 12:38:40;;;;;;;37.60;18.47;;;3.10;99.90;;;;;;4955017;28;20197;-87
2021/01/16 12:41:06;;;;;;;35.13;18.00;;;3.20;99.90;;;;;;4956079;28;20275;-86
2021/01/16 12:43:32;;;;;;;34.50;17.47;;;3.40;99.90;;;;;;4960615;28;20211;-86
2021/01/16 12:46:05;;;;;;;36.83;18.97;;;3.30;99.90;;;;;;4943135;29;20215;-85
2021/01/16 12:48:35;;;;;;;37.10;17.80;;;3.30;99.90;;;;;;4967589;28;20234;-84
2021/01/16 12:51:05;;;;;;;37.20;18.73;;;3.30;99.90;;;;;;4958250;28;20174;-86
2021/01/16 12:53:31;;;;;;;39.40;19.20;;;3.10;99.90;;;;;;4958815;28;20242;-85